map of LKV home
LKV - Airport
Location
City:  Lakeview, Oregon, United States
Name:Lake County Airport
ICAO:KLKV
IATA:LKV
FAA LID:LKV

Details
Type:Airport (Airfield)
Use:Public/Civil
Latitude:4209'40"N (42.161111)
Longitude:12023'57"W (-120.399082)
Datum:WGS 1984
Elevation:4734 ft (1443 m)
Variation:14.02E (WMM2015v2 magnetic declination)
-0.09 annual change
Runways:1
Longest:5318 × 100 ft (1621 × 30.5 m), paved

Time
Time Zone:UTC-8 (DST-7)
Local Time:

Weather
METAR:KLKV 041417Z AUTO 17014KT 4SM -SN BR FEW005 BKN015 OVC022 M01/M02 A2925 RMK AO2 P0000 FZRANO

Related Locations
Nearby:
Farthest:FTU: 11050 mi / 17783 km
Tolagnaro [Maurillac Airport (Fort Dauphin Airport)], MG

Find:

   beyond  
but within

Other Information
Maps:
NOTAMs:
Links:
Sources:

  
  • flag of United States
  • flag of Oregon
  

Sectional Chart

Flight Planning
at skyvector.com

Satellite Image

Google Maps Satellite view

 

Copyright © 2004-2019 Karl L. Swartz. All rights reserved.
The Great Circle Mapper name and logo are trademarks of the Great Circle Mapper.
All other trademarks mentioned herein belong to their respective owners.
Please see credits for attibutions and further copyright information.

  Follow gcmap on Facebook Follow gcmap on Twitter GCmap on LinkedIn

hCard Microformat

Geo Microformat